Create Tblcommutelog Verified Points Advance Search
| # | Trip ID | Id Commuter | Trip Date | Trip Num | Current Lat | Current Lng | Delta Distance | Current Time | Activity | Activity Confidence | Current Speed | |
|---|---|---|---|---|---|---|---|---|---|---|---|---|
| 73341 | 251110_704403_16561059_1724 | 704403 | (not set) | (not set) | 38.865688098291 | -77.068017330131 | 3.3139 | 2025-11-10 17:35:04 | in_vehicle | 100 | 7.1213353956744 | |
| 73342 | 251110_788421_16657038_1615 | 788421 | (not set) | (not set) | 39.175423114809 | -77.245717245069 | 25.0398 | 2025-11-10 17:35:09 | in_vehicle | 100 | 8.2925782542223 | |
| 73343 | 251110_787797_16656315_1640 | 787797 | (not set) | (not set) | 39.13219971034 | -77.164924875344 | 19.724 | 2025-11-10 17:35:14 | unknown | 100 | 9.8348636977299 | |
| 73344 | 251110_789700_16658594_1700 | 789700 | (not set) | (not set) | 38.890476478828 | -77.018090067808 | 2.0409 | 2025-11-10 17:35:25 | on_foot | 100 | 0.67502928107146 | |
| 73345 | 251110_780652_16648329_1728 | 780652 | (not set) | (not set) | 38.895165686023 | -77.028547121885 | 1.0841 | 2025-11-10 17:35:30 | on_foot | 100 | 1.6942787915635 | |
| 73346 | 251110_706259_16563285_1722 | 706259 | (not set) | (not set) | 38.906116410235 | -77.044897963898 | 0.7865 | 2025-11-10 17:35:42 | still | 33 | 3.2142122721217 | |
| 73347 | 251110_785147_16653236_1639 | 785147 | (not set) | (not set) | 39.13111415 | -77.912971 | 35.8432 | 2025-11-10 17:35:47 | in_vehicle | 100 | 11.891244289073 | |
| 73348 | 251110_789700_16658594_1700 | 789700 | (not set) | (not set) | 38.890493748212 | -77.017500351872 | 2.0727 | 2025-11-10 17:35:58 | on_foot | 100 | 0.61691417740306 | |
| 73349 | 251110_758112_16657778_1728 | 758112 | (not set) | (not set) | 38.897383836122 | -77.024174501555 | 0.1793 | 2025-11-10 17:36:00 | still | 33 | -0.44703925898772 | |
| 73350 | 251110_704403_16561059_1724 | 704403 | (not set) | (not set) | 38.856115030645 | -77.072359468966 | 4.0257 | 2025-11-10 17:36:12 | in_vehicle | 100 | 8.1987000098349 | |
| 73351 | 251110_788421_16657038_1615 | 788421 | (not set) | (not set) | 39.180292098964 | -77.239518371419 | 25.5176 | 2025-11-10 17:36:21 | in_vehicle | 100 | 4.0591164716085 | |
| 73352 | 251110_788500_16657138_1720 | 788500 | (not set) | (not set) | 38.933784519293 | -76.990913360519 | 0.4902 | 2025-11-10 17:36:24 | still | 33 | 0.25034198503313 | |
| 73353 | 251110_766077_16632982_1719 | 766077 | (not set) | (not set) | 38.833427484569 | -77.10312770863 | 6.3146 | 2025-11-10 17:36:29 | in_vehicle | 100 | 7.0989834327251 | |
| 73354 | 251110_704403_16561059_1724 | 704403 | (not set) | (not set) | 38.851963500693 | -77.075325299101 | 4.3537 | 2025-11-10 17:36:37 | in_vehicle | 100 | 11.403971496777 | |
| 73355 | 251110_789341_16658186_1728 | 789341 | (not set) | (not set) | 38.902703 | -77.0405461 | 0.2539 | 2025-11-10 17:33:47 | walking | 100 | 0.66608849589171 | |
| 73356 | 251110_787797_16656315_1640 | 787797 | (not set) | (not set) | 39.126254523984 | -77.175496161939 | 20.6634 | 2025-11-10 17:36:54 | unknown | 100 | 10.863053993402 | |
| 73357 | 251110_780652_16648329_1728 | 780652 | (not set) | (not set) | 38.893897853835 | -77.023702015254 | 1.36 | 2025-11-10 17:37:09 | on_foot | 100 | 2.4140119985337 | |
| 73358 | 251110_782596_16650301_1715 | 782596 | (not set) | (not set) | 38.903853101957 | -77.027014190216 | 1.8663 | 2025-11-10 17:37:14 | in_vehicle | 100 | 2.659883590977 | |
| 73359 | 251110_775289_16642741_1735 | 775289 | (not set) | (not set) | 38.9054496 | -77.0220561 | 0.0959 | 2025-11-10 17:37:24 | walking | 100 | 0.54538789596502 | |
| 73360 | 251110_751043_16617307_1713 | 751043 | (not set) | (not set) | 38.934108066928 | -76.975736770091 | 3.0606 | 2025-11-10 17:37:41 | on_bicycle | 100 | 1.9803839173156 |